sensor_id;sensor_type;location;lat;lon;timestamp;pressure;altitude;pressure_sealevel;temperature
80246;BMP280;69558;39.208;-77.226;2024-01-27T00:00:20;100223.59;;;16.56
80246;BMP280;69558;39.208;-77.226;2024-01-27T00:02:46;100222.78;;;16.56
80246;BMP280;69558;39.208;-77.226;2024-01-27T00:05:12;100238.31;;;16.57
80246;BMP280;69558;39.208;-77.226;2024-01-27T00:07:38;100235.03;;;16.55
80246;BMP280;69558;39.208;-77.226;2024-01-27T00:10:04;100235.03;;;16.55
80246;BMP280;69558;39.208;-77.226;2024-01-27T00:12:30;100243.56;;;16.57
80246;BMP280;69558;39.208;-77.226;2024-01-27T00:14:56;100247.97;;;16.57
80246;BMP280;69558;39.208;-77.226;2024-01-27T00:17:21;100246.34;;;16.56
80246;BMP280;69558;39.208;-77.226;2024-01-27T00:19:52;100257.44;;;16.58
80246;BMP280;69558;39.208;-77.226;2024-01-27T00:22:18;100259.59;;;16.54
80246;BMP280;69558;39.208;-77.226;2024-01-27T00:24:46;100264.69;;;16.56
80246;BMP280;69558;39.208;-77.226;2024-01-27T00:27:12;100260.41;;;16.54
80246;BMP280;69558;39.208;-77.226;2024-01-27T00:29:38;100257.63;;;16.56
80246;BMP280;69558;39.208;-77.226;2024-01-27T00:32:04;100255.03;;;16.56
80246;BMP280;69558;39.208;-77.226;2024-01-27T00:34:29;100256.34;;;16.52
80246;BMP280;69558;39.208;-77.226;2024-01-27T00:36:55;100262.88;;;16.56
80246;BMP280;69558;39.208;-77.226;2024-01-27T00:39:21;100249.19;;;16.46
80246;BMP280;69558;39.208;-77.226;2024-01-27T00:41:48;100263.84;;;16.55
80246;BMP280;69558;39.208;-77.226;2024-01-27T00:44:13;100258.59;;;16.55
80246;BMP280;69558;39.208;-77.226;2024-01-27T00:46:39;100250.78;;;16.47
80246;BMP280;69558;39.208;-77.226;2024-01-27T00:49:05;100272.53;;;16.56
80246;BMP280;69558;39.208;-77.226;2024-01-27T00:51:32;100278.91;;;16.53
80246;BMP280;69558;39.208;-77.226;2024-01-27T00:53:58;100282.16;;;16.55
80246;BMP280;69558;39.208;-77.226;2024-01-27T00:56:24;100288.25;;;16.56
80246;BMP280;69558;39.208;-77.226;2024-01-27T00:58:50;100290.88;;;16.56
80246;BMP280;69558;39.208;-77.226;2024-01-27T01:01:16;100286.44;;;16.56
80246;BMP280;69558;39.208;-77.226;2024-01-27T01:03:41;100294.44;;;16.54
80246;BMP280;69558;39.208;-77.226;2024-01-27T01:06:07;100291.00;;;16.54
80246;BMP280;69558;39.208;-77.226;2024-01-27T01:08:34;100296.09;;;16.56
80246;BMP280;69558;39.208;-77.226;2024-01-27T01:11:00;100300.50;;;16.55
80246;BMP280;69558;39.208;-77.226;2024-01-27T01:13:26;100303.97;;;16.56
80246;BMP280;69558;39.208;-77.226;2024-01-27T01:15:52;100301.47;;;16.54
80246;BMP280;69558;39.208;-77.226;2024-01-27T01:18:18;100308.53;;;16.53
80246;BMP280;69558;39.208;-77.226;2024-01-27T01:20:44;100309.34;;;16.54
80246;BMP280;69558;39.208;-77.226;2024-01-27T01:23:10;100295.44;;;16.53
80246;BMP280;69558;39.208;-77.226;2024-01-27T01:25:35;100298.06;;;16.53
80246;BMP280;69558;39.208;-77.226;2024-01-27T01:28:02;100301.47;;;16.54
80246;BMP280;69558;39.208;-77.226;2024-01-27T01:30:28;100301.66;;;16.52
80246;BMP280;69558;39.208;-77.226;2024-01-27T01:32:54;100307.53;;;16.54
80246;BMP280;69558;39.208;-77.226;2024-01-27T01:35:20;100299.25;;;16.51
80246;BMP280;69558;39.208;-77.226;2024-01-27T01:37:46;100311.13;;;16.53
80246;BMP280;69558;39.208;-77.226;2024-01-27T01:40:13;100308.53;;;16.53
80246;BMP280;69558;39.208;-77.226;2024-01-27T01:42:41;100306.72;;;16.54
80246;BMP280;69558;39.208;-77.226;2024-01-27T01:45:10;100311.97;;;16.54
80246;BMP280;69558;39.208;-77.226;2024-01-27T01:47:37;100315.38;;;16.54
80246;BMP280;69558;39.208;-77.226;2024-01-27T01:50:03;100321.63;;;16.53
80246;BMP280;69558;39.208;-77.226;2024-01-27T01:52:31;100319.00;;;16.53
80246;BMP280;69558;39.208;-77.226;2024-01-27T01:54:57;100324.22;;;16.53
80246;BMP280;69558;39.208;-77.226;2024-01-27T01:57:23;100325.88;;;16.54
80246;BMP280;69558;39.208;-77.226;2024-01-27T01:59:49;100324.44;;;16.52
80246;BMP280;69558;39.208;-77.226;2024-01-27T02:02:15;100329.00;;;16.50
80246;BMP280;69558;39.208;-77.226;2024-01-27T02:04:45;100330.28;;;16.54
80246;BMP280;69558;39.208;-77.226;2024-01-27T02:07:11;100326.03;;;16.53
80246;BMP280;69558;39.208;-77.226;2024-01-27T02:09:37;100337.31;;;16.53
80246;BMP280;69558;39.208;-77.226;2024-01-27T02:12:04;100334.72;;;16.53
80246;BMP280;69558;39.208;-77.226;2024-01-27T02:14:30;100334.09;;;16.51
80246;BMP280;69558;39.208;-77.226;2024-01-27T02:16:56;100333.91;;;16.53
80246;BMP280;69558;39.208;-77.226;2024-01-27T02:19:23;100336.50;;;16.53
80246;BMP280;69558;39.208;-77.226;2024-01-27T02:21:49;100340.75;;;16.54
80246;BMP280;69558;39.208;-77.226;2024-01-27T02:24:15;100332.09;;;16.53
80246;BMP280;69558;39.208;-77.226;2024-01-27T02:26:41;100331.63;;;16.50
80246;BMP280;69558;39.208;-77.226;2024-01-27T02:29:07;100334.72;;;16.53
80246;BMP280;69558;39.208;-77.226;2024-01-27T02:31:33;100333.91;;;16.53
80246;BMP280;69558;39.208;-77.226;2024-01-27T02:33:59;100331.28;;;16.53
80246;BMP280;69558;39.208;-77.226;2024-01-27T02:36:25;100334.72;;;16.53
80246;BMP280;69558;39.208;-77.226;2024-01-27T02:38:50;100333.41;;;16.49
80246;BMP280;69558;39.208;-77.226;2024-01-27T02:41:16;100344.56;;;16.51
80246;BMP280;69558;39.208;-77.226;2024-01-27T02:43:42;100335.69;;;16.52
80246;BMP280;69558;39.208;-77.226;2024-01-27T02:46:11;100340.16;;;16.52
80246;BMP280;69558;39.208;-77.226;2024-01-27T02:48:43;100335.69;;;16.52
80246;BMP280;69558;39.208;-77.226;2024-01-27T02:51:09;100335.09;;;16.50
80246;BMP280;69558;39.208;-77.226;2024-01-27T02:53:35;100340.31;;;16.50
80246;BMP280;69558;39.208;-77.226;2024-01-27T02:56:01;100337.53;;;16.52
80246;BMP280;69558;39.208;-77.226;2024-01-27T02:58:27;100347.19;;;16.51
80246;BMP280;69558;39.208;-77.226;2024-01-27T03:00:53;100346.38;;;16.51
80246;BMP280;69558;39.208;-77.226;2024-01-27T03:03:19;100347.19;;;16.51
80246;BMP280;69558;39.208;-77.226;2024-01-27T03:05:46;100350.63;;;16.52
80246;BMP280;69558;39.208;-77.226;2024-01-27T03:08:11;100343.91;;;16.49
80246;BMP280;69558;39.208;-77.226;2024-01-27T03:10:37;100332.97;;;16.46
80246;BMP280;69558;39.208;-77.226;2024-01-27T03:13:03;100340.16;;;16.52
80246;BMP280;69558;39.208;-77.226;2024-01-27T03:15:29;100346.16;;;16.52
80246;BMP280;69558;39.208;-77.226;2024-01-27T03:17:55;100354.03;;;16.52
80246;BMP280;69558;39.208;-77.226;2024-01-27T03:20:21;100360.06;;;16.53
80246;BMP280;69558;39.208;-77.226;2024-01-27T03:22:47;100361.88;;;16.52
80246;BMP280;69558;39.208;-77.226;2024-01-27T03:25:13;100367.94;;;16.53
80246;BMP280;69558;39.208;-77.226;2024-01-27T03:27:39;100372.34;;;16.52
80246;BMP280;69558;39.208;-77.226;2024-01-27T03:30:05;100361.88;;;16.52
80246;BMP280;69558;39.208;-77.226;2024-01-27T03:32:33;100368.75;;;16.53
80246;BMP280;69558;39.208;-77.226;2024-01-27T03:35:02;100366.94;;;16.54
80246;BMP280;69558;39.208;-77.226;2024-01-27T03:37:28;100362.69;;;16.53
80246;BMP280;69558;39.208;-77.226;2024-01-27T03:39:54;100345.56;;;16.42
80246;BMP280;69558;39.208;-77.226;2024-01-27T03:42:20;100368.13;;;16.51
80246;BMP280;69558;39.208;-77.226;2024-01-27T03:44:46;100377.59;;;16.52
80246;BMP280;69558;39.208;-77.226;2024-01-27T03:47:12;100382.03;;;16.52
80246;BMP280;69558;39.208;-77.226;2024-01-27T03:49:38;100386.47;;;16.51
80246;BMP280;69558;39.208;-77.226;2024-01-27T03:52:04;100387.28;;;16.52
80246;BMP280;69558;39.208;-77.226;2024-01-27T03:54:30;100375.19;;;16.51
80246;BMP280;69558;39.208;-77.226;2024-01-27T03:56:57;100382.03;;;16.52
80246;BMP280;69558;39.208;-77.226;2024-01-27T03:59:23;100383.03;;;16.51
80246;BMP280;69558;39.208;-77.226;2024-01-27T04:01:48;100374.97;;;16.52
80246;BMP280;69558;39.208;-77.226;2024-01-27T04:04:14;100375.19;;;16.51
80246;BMP280;69558;39.208;-77.226;2024-01-27T04:06:40;100383.66;;;16.53
80246;BMP280;69558;39.208;-77.226;2024-01-27T04:09:07;100395.91;;;16.52
80246;BMP280;69558;39.208;-77.226;2024-01-27T04:11:36;100398.53;;;16.52
80246;BMP280;69558;39.208;-77.226;2024-01-27T04:14:03;100407.22;;;16.53
80246;BMP280;69558;39.208;-77.226;2024-01-27T04:16:29;100413.25;;;16.53
80246;BMP280;69558;39.208;-77.226;2024-01-27T04:18:56;100398.53;;;16.52
80246;BMP280;69558;39.208;-77.226;2024-01-27T04:21:22;100398.38;;;16.54
80246;BMP280;69558;39.208;-77.226;2024-01-27T04:23:48;100398.38;;;16.54
80246;BMP280;69558;39.208;-77.226;2024-01-27T04:26:14;100393.13;;;16.54
80246;BMP280;69558;39.208;-77.226;2024-01-27T04:28:40;100394.31;;;16.51
80246;BMP280;69558;39.208;-77.226;2024-01-27T04:31:06;100403.00;;;16.52
80246;BMP280;69558;39.208;-77.226;2024-01-27T04:33:32;100410.66;;;16.53
80246;BMP280;69558;39.208;-77.226;2024-01-27T04:35:58;100403.16;;;16.50
80246;BMP280;69558;39.208;-77.226;2024-01-27T04:38:24;100399.34;;;16.53
80246;BMP280;69558;39.208;-77.226;2024-01-27T04:40:51;100411.63;;;16.52
80246;BMP280;69558;39.208;-77.226;2024-01-27T04:43:18;100408.22;;;16.52
80246;BMP280;69558;39.208;-77.226;2024-01-27T04:45:47;100420.50;;;16.51
80246;BMP280;69558;39.208;-77.226;2024-01-27T04:48:14;100423.25;;;16.50
80246;BMP280;69558;39.208;-77.226;2024-01-27T04:50:40;100429.19;;;16.52
80246;BMP280;69558;39.208;-77.226;2024-01-27T04:53:06;100429.78;;;16.54
80246;BMP280;69558;39.208;-77.226;2024-01-27T04:55:32;100422.31;;;16.51
80246;BMP280;69558;39.208;-77.226;2024-01-27T04:57:58;100424.94;;;16.51
80246;BMP280;69558;39.208;-77.226;2024-01-27T05:00:25;100442.28;;;16.52
80246;BMP280;69558;39.208;-77.226;2024-01-27T05:02:52;100435.41;;;16.51
80246;BMP280;69558;39.208;-77.226;2024-01-27T05:05:18;100429.34;;;16.50
80246;BMP280;69558;39.208;-77.226;2024-01-27T05:07:44;100423.13;;;16.51
80246;BMP280;69558;39.208;-77.226;2024-01-27T05:10:10;100424.94;;;16.51
80246;BMP280;69558;39.208;-77.226;2024-01-27T05:12:37;100421.50;;;16.50
80246;BMP280;69558;39.208;-77.226;2024-01-27T05:15:03;100424.25;;;16.49
80246;BMP280;69558;39.208;-77.226;2024-01-27T05:17:30;100425.88;;;16.50
80246;BMP280;69558;39.208;-77.226;2024-01-27T05:19:57;100433.72;;;16.50
80246;BMP280;69558;39.208;-77.226;2024-01-27T05:22:23;100423.59;;;16.47
80246;BMP280;69558;39.208;-77.226;2024-01-27T05:24:49;100434.59;;;16.50
80246;BMP280;69558;39.208;-77.226;2024-01-27T05:27:15;100433.72;;;16.50
80246;BMP280;69558;39.208;-77.226;2024-01-27T05:29:41;100434.06;;;16.47
80246;BMP280;69558;39.208;-77.226;2024-01-27T05:32:07;100441.59;;;16.50
80246;BMP280;69558;39.208;-77.226;2024-01-27T05:34:33;100439.97;;;16.49
80246;BMP280;69558;39.208;-77.226;2024-01-27T05:36:59;100441.75;;;16.48
80246;BMP280;69558;39.208;-77.226;2024-01-27T05:39:25;100452.91;;;16.50
80246;BMP280;69558;39.208;-77.226;2024-01-27T05:41:51;100445.38;;;16.47
80246;BMP280;69558;39.208;-77.226;2024-01-27T05:44:17;100455.53;;;16.50
80246;BMP280;69558;39.208;-77.226;2024-01-27T05:46:42;100439.31;;;16.47
80246;BMP280;69558;39.208;-77.226;2024-01-27T05:49:08;100448.63;;;16.49
80246;BMP280;69558;39.208;-77.226;2024-01-27T05:51:34;100445.19;;;16.49
80246;BMP280;69558;39.208;-77.226;2024-01-27T05:54:00;100440.78;;;16.49
80246;BMP280;69558;39.208;-77.226;2024-01-27T05:56:26;100445.19;;;16.49
80246;BMP280;69558;39.208;-77.226;2024-01-27T05:58:52;100441.75;;;16.48
80246;BMP280;69558;39.208;-77.226;2024-01-27T06:01:18;100440.78;;;16.49
80246;BMP280;69558;39.208;-77.226;2024-01-27T06:03:45;100432.97;;;16.41
80246;BMP280;69558;39.208;-77.226;2024-01-27T06:06:10;100432.16;;;16.41
80246;BMP280;69558;39.208;-77.226;2024-01-27T06:08:36;100437.50;;;16.47
80246;BMP280;69558;39.208;-77.226;2024-01-27T06:11:06;100452.22;;;16.48
80246;BMP280;69558;39.208;-77.226;2024-01-27T06:13:32;100445.38;;;16.47
80246;BMP280;69558;39.208;-77.226;2024-01-27T06:16:06;100450.59;;;16.47
80246;BMP280;69558;39.208;-77.226;2024-01-27T06:18:34;100456.66;;;16.48
80246;BMP280;69558;39.208;-77.226;2024-01-27T06:21:04;100454.03;;;16.48
80246;BMP280;69558;39.208;-77.226;2024-01-27T06:23:30;100449.78;;;16.47
80246;BMP280;69558;39.208;-77.226;2024-01-27T06:25:55;100450.59;;;16.47
80246;BMP280;69558;39.208;-77.226;2024-01-27T06:28:21;100439.81;;;16.42
80246;BMP280;69558;39.208;-77.226;2024-01-27T06:30:47;100443.75;;;16.46
80246;BMP280;69558;39.208;-77.226;2024-01-27T06:33:13;100451.63;;;16.46
80246;BMP280;69558;39.208;-77.226;2024-01-27T06:35:39;100443.91;;;16.45
80246;BMP280;69558;39.208;-77.226;2024-01-27T06:38:04;100438.00;;;16.43
80246;BMP280;69558;39.208;-77.226;2024-01-27T06:40:30;100450.94;;;16.44
80246;BMP280;69558;39.208;-77.226;2024-01-27T06:42:57;100452.75;;;16.44
80246;BMP280;69558;39.208;-77.226;2024-01-27T06:45:23;100452.75;;;16.44
80246;BMP280;69558;39.208;-77.226;2024-01-27T06:47:48;100458.16;;;16.42
80246;BMP280;69558;39.208;-77.226;2024-01-27T06:50:14;100452.91;;;16.42
80246;BMP280;69558;39.208;-77.226;2024-01-27T06:52:40;100457.97;;;16.44
80246;BMP280;69558;39.208;-77.226;2024-01-27T06:55:06;100452.91;;;16.42
80246;BMP280;69558;39.208;-77.226;2024-01-27T06:57:32;100455.03;;;16.39
80246;BMP280;69558;39.208;-77.226;2024-01-27T06:59:58;100465.19;;;16.42
80246;BMP280;69558;39.208;-77.226;2024-01-27T07:02:25;100463.38;;;16.42
80246;BMP280;69558;39.208;-77.226;2024-01-27T07:04:52;100465.84;;;16.44
80246;BMP280;69558;39.208;-77.226;2024-01-27T07:07:25;100467.00;;;16.41
80246;BMP280;69558;39.208;-77.226;2024-01-27T07:09:52;100475.66;;;16.42
80246;BMP280;69558;39.208;-77.226;2024-01-27T07:12:18;100474.06;;;16.41
80246;BMP280;69558;39.208;-77.226;2024-01-27T07:14:44;100484.53;;;16.41
80246;BMP280;69558;39.208;-77.226;2024-01-27T07:17:10;100487.13;;;16.41
80246;BMP280;69558;39.208;-77.226;2024-01-27T07:19:36;100494.16;;;16.40
80246;BMP280;69558;39.208;-77.226;2024-01-27T07:22:02;100497.75;;;16.39
80246;BMP280;69558;39.208;-77.226;2024-01-27T07:24:29;100502.00;;;16.40
80246;BMP280;69558;39.208;-77.226;2024-01-27T07:26:55;100503.97;;;16.38
80246;BMP280;69558;39.208;-77.226;2024-01-27T07:29:21;100507.41;;;16.39
80246;BMP280;69558;39.208;-77.226;2024-01-27T07:31:50;100509.19;;;16.38
80246;BMP280;69558;39.208;-77.226;2024-01-27T07:34:15;100513.63;;;16.38
80246;BMP280;69558;39.208;-77.226;2024-01-27T07:36:41;100504.13;;;16.37
80246;BMP280;69558;39.208;-77.226;2024-01-27T07:39:07;100512.81;;;16.37
80246;BMP280;69558;39.208;-77.226;2024-01-27T07:41:34;100504.31;;;16.35
80246;BMP280;69558;39.208;-77.226;2024-01-27T07:44:07;100503.16;;;16.38
80246;BMP280;69558;39.208;-77.226;2024-01-27T07:46:34;100502.34;;;16.37
80246;BMP280;69558;39.208;-77.226;2024-01-27T07:49:02;100500.88;;;16.35
80246;BMP280;69558;39.208;-77.226;2024-01-27T07:51:28;100503.81;;;16.32
80246;BMP280;69558;39.208;-77.226;2024-01-27T07:53:54;100515.75;;;16.34
80246;BMP280;69558;39.208;-77.226;2024-01-27T07:56:20;100514.28;;;16.32
80246;BMP280;69558;39.208;-77.226;2024-01-27T07:58:46;100516.75;;;16.33
80246;BMP280;69558;39.208;-77.226;2024-01-27T08:01:15;100517.56;;;16.34
80246;BMP280;69558;39.208;-77.226;2024-01-27T08:03:41;100518.53;;;16.33
80246;BMP280;69558;39.208;-77.226;2024-01-27T08:06:17;100509.69;;;16.34
80246;BMP280;69558;39.208;-77.226;2024-01-27T08:08:47;100512.31;;;16.34
80246;BMP280;69558;39.208;-77.226;2024-01-27T08:11:14;100513.47;;;16.31
80246;BMP280;69558;39.208;-77.226;2024-01-27T08:13:41;100514.44;;;16.30
80246;BMP280;69558;39.208;-77.226;2024-01-27T08:16:07;100511.66;;;16.32
80246;BMP280;69558;39.208;-77.226;2024-01-27T08:18:38;100504.16;;;16.29
80246;BMP280;69558;39.208;-77.226;2024-01-27T08:21:04;100507.75;;;16.28
80246;BMP280;69558;39.208;-77.226;2024-01-27T08:23:30;100525.56;;;16.32
80246;BMP280;69558;39.208;-77.226;2024-01-27T08:25:56;100523.94;;;16.31
80246;BMP280;69558;39.208;-77.226;2024-01-27T08:28:22;100531.63;;;16.33
80246;BMP280;69558;39.208;-77.226;2024-01-27T08:30:48;100539.47;;;16.33
80246;BMP280;69558;39.208;-77.226;2024-01-27T08:33:14;100529.34;;;16.30
80246;BMP280;69558;39.208;-77.226;2024-01-27T08:35:40;100531.78;;;16.31
80246;BMP280;69558;39.208;-77.226;2024-01-27T08:38:06;100535.22;;;16.32
80246;BMP280;69558;39.208;-77.226;2024-01-27T08:40:33;100540.63;;;16.30
80246;BMP280;69558;39.208;-77.226;2024-01-27T08:42:59;100515.63;;;16.19
80246;BMP280;69558;39.208;-77.226;2024-01-27T08:45:25;100518.56;;;16.25
80246;BMP280;69558;39.208;-77.226;2024-01-27T08:47:51;100528.53;;;16.29
80246;BMP280;69558;39.208;-77.226;2024-01-27T08:50:17;100531.97;;;16.30
80246;BMP280;69558;39.208;-77.226;2024-01-27T08:52:43;100543.25;;;16.30
80246;BMP280;69558;39.208;-77.226;2024-01-27T08:55:09;100557.16;;;16.31
80246;BMP280;69558;39.208;-77.226;2024-01-27T08:57:35;100558.94;;;16.30
80246;BMP280;69558;39.208;-77.226;2024-01-27T09:00:00;100552.91;;;16.30
80246;BMP280;69558;39.208;-77.226;2024-01-27T09:02:28;100546.34;;;16.26
80246;BMP280;69558;39.208;-77.226;2024-01-27T09:04:54;100552.25;;;16.28
80246;BMP280;69558;39.208;-77.226;2024-01-27T09:07:23;100551.44;;;16.27
80246;BMP280;69558;39.208;-77.226;2024-01-27T09:09:49;100550.13;;;16.23
80246;BMP280;69558;39.208;-77.226;2024-01-27T09:12:15;100557.00;;;16.24
80246;BMP280;69558;39.208;-77.226;2024-01-27T09:14:41;100565.00;;;16.23
80246;BMP280;69558;39.208;-77.226;2024-01-27T09:17:07;100575.94;;;16.26
80246;BMP280;69558;39.208;-77.226;2024-01-27T09:19:33;100569.09;;;16.25
80246;BMP280;69558;39.208;-77.226;2024-01-27T09:21:59;100571.06;;;16.23
80246;BMP280;69558;39.208;-77.226;2024-01-27T09:24:24;100578.09;;;16.23
80246;BMP280;69558;39.208;-77.226;2024-01-27T09:26:50;100573.84;;;16.21
80246;BMP280;69558;39.208;-77.226;2024-01-27T09:29:16;100586.28;;;16.19
80246;BMP280;69558;39.208;-77.226;2024-01-27T09:31:43;100582.03;;;16.18
80246;BMP280;69558;39.208;-77.226;2024-01-27T09:34:08;100579.25;;;16.20
80246;BMP280;69558;39.208;-77.226;2024-01-27T09:36:35;100591.50;;;16.19
80246;BMP280;69558;39.208;-77.226;2024-01-27T09:39:00;100601.78;;;16.21
80246;BMP280;69558;39.208;-77.226;2024-01-27T09:41:30;100603.59;;;16.20
80246;BMP280;69558;39.208;-77.226;2024-01-27T09:44:01;100601.97;;;16.19
80246;BMP280;69558;39.208;-77.226;2024-01-27T09:46:32;100608.03;;;16.20
80246;BMP280;69558;39.208;-77.226;2024-01-27T09:48:58;100608.19;;;16.18
80246;BMP280;69558;39.208;-77.226;2024-01-27T09:51:25;100608.19;;;16.18
80246;BMP280;69558;39.208;-77.226;2024-01-27T09:53:52;100607.50;;;16.16
80246;BMP280;69558;39.208;-77.226;2024-01-27T09:56:18;100607.38;;;16.18
80246;BMP280;69558;39.208;-77.226;2024-01-27T09:58:45;100624.06;;;16.17
80246;BMP280;69558;39.208;-77.226;2024-01-27T10:01:11;100620.59;;;16.16
80246;BMP280;69558;39.208;-77.226;2024-01-27T10:03:41;100624.19;;;16.15
80246;BMP280;69558;39.208;-77.226;2024-01-27T10:06:09;100629.44;;;16.15
80246;BMP280;69558;39.208;-77.226;2024-01-27T10:08:36;100622.59;;;16.14
80246;BMP280;69558;39.208;-77.226;2024-01-27T10:11:09;100617.34;;;16.14
80246;BMP280;69558;39.208;-77.226;2024-01-27T10:13:39;100614.75;;;16.14
80246;BMP280;69558;39.208;-77.226;2024-01-27T10:16:07;100617.34;;;16.14
80246;BMP280;69558;39.208;-77.226;2024-01-27T10:18:34;100610.66;;;16.12
80246;BMP280;69558;39.208;-77.226;2024-01-27T10:21:11;100597.06;;;16.08
80246;BMP280;69558;39.208;-77.226;2024-01-27T10:23:40;100608.50;;;16.15
80246;BMP280;69558;39.208;-77.226;2024-01-27T10:26:09;100601.13;;;16.11
80246;BMP280;69558;39.208;-77.226;2024-01-27T10:28:35;100614.91;;;16.13
80246;BMP280;69558;39.208;-77.226;2024-01-27T10:31:11;100615.72;;;16.13
80246;BMP280;69558;39.208;-77.226;2024-01-27T10:33:50;100623.56;;;16.13
80246;BMP280;69558;39.208;-77.226;2024-01-27T10:36:16;100622.75;;;16.13
80246;BMP280;69558;39.208;-77.226;2024-01-27T10:38:42;100620.44;;;16.10
80246;BMP280;69558;39.208;-77.226;2024-01-27T10:41:09;100619.63;;;16.09
80246;BMP280;69558;39.208;-77.226;2024-01-27T10:43:39;100618.81;;;16.09
80246;BMP280;69558;39.208;-77.226;2024-01-27T10:46:09;100613.75;;;16.07
80246;BMP280;69558;39.208;-77.226;2024-01-27T10:48:35;100623.03;;;16.10
80246;BMP280;69558;39.208;-77.226;2024-01-27T10:51:07;100630.72;;;16.11
80246;BMP280;69558;39.208;-77.226;2024-01-27T10:53:35;100630.09;;;16.09
80246;BMP280;69558;39.208;-77.226;2024-01-27T10:56:03;100645.97;;;16.08
80246;BMP280;69558;39.208;-77.226;2024-01-27T10:58:35;100644.31;;;16.07
80246;BMP280;69558;39.208;-77.226;2024-01-27T11:01:10;100645.44;;;16.04
80246;BMP280;69558;39.208;-77.226;2024-01-27T11:03:38;100644.47;;;16.05
80246;BMP280;69558;39.208;-77.226;2024-01-27T11:06:06;100651.69;;;16.03
80246;BMP280;69558;39.208;-77.226;2024-01-27T11:08:37;100651.34;;;16.06
80246;BMP280;69558;39.208;-77.226;2024-01-27T11:11:03;100650.53;;;16.06
80246;BMP280;69558;39.208;-77.226;2024-01-27T11:13:33;100657.38;;;16.07
80246;BMP280;69558;39.208;-77.226;2024-01-27T11:15:59;100671.59;;;16.04
80246;BMP280;69558;39.208;-77.226;2024-01-27T11:18:25;100669.81;;;16.05
80246;BMP280;69558;39.208;-77.226;2024-01-27T11:20:55;100662.97;;;16.04
80246;BMP280;69558;39.208;-77.226;2024-01-27T11:23:32;100658.53;;;16.04
80246;BMP280;69558;39.208;-77.226;2024-01-27T11:26:08;100660.50;;;16.02
80246;BMP280;69558;39.208;-77.226;2024-01-27T11:28:36;100665.25;;;15.99
80246;BMP280;69558;39.208;-77.226;2024-01-27T11:31:06;100664.09;;;16.01
80246;BMP280;69558;39.208;-77.226;2024-01-27T11:33:32;100661.00;;;15.98
80246;BMP280;69558;39.208;-77.226;2024-01-27T11:36:05;100676.50;;;15.99
80246;BMP280;69558;39.208;-77.226;2024-01-27T11:38:32;100673.88;;;15.99
80246;BMP280;69558;39.208;-77.226;2024-01-27T11:41:02;100686.31;;;15.97
80246;BMP280;69558;39.208;-77.226;2024-01-27T11:43:28;100693.34;;;15.97
80246;BMP280;69558;39.208;-77.226;2024-01-27T11:45:58;100688.09;;;15.97
80246;BMP280;69558;39.208;-77.226;2024-01-27T11:48:24;100692.53;;;15.96
80246;BMP280;69558;39.208;-77.226;2024-01-27T11:51:05;100702.00;;;15.97
80246;BMP280;69558;39.208;-77.226;2024-01-27T11:53:32;100698.72;;;15.95
80246;BMP280;69558;39.208;-77.226;2024-01-27T11:55:59;100693.00;;;15.92
80246;BMP280;69558;39.208;-77.226;2024-01-27T11:58:25;100708.38;;;15.95
80246;BMP280;69558;39.208;-77.226;2024-01-27T12:00:52;100697.41;;;15.91
80246;BMP280;69558;39.208;-77.226;2024-01-27T12:03:17;100705.13;;;15.93
80246;BMP280;69558;39.208;-77.226;2024-01-27T12:05:43;100711.19;;;15.93
80246;BMP280;69558;39.208;-77.226;2024-01-27T12:08:10;100714.75;;;15.92
80246;BMP280;69558;39.208;-77.226;2024-01-27T12:10:36;100712.97;;;15.93
80246;BMP280;69558;39.208;-77.226;2024-01-27T12:13:02;100718.22;;;15.93
80246;BMP280;69558;39.208;-77.226;2024-01-27T12:15:28;100711.63;;;15.88
80246;BMP280;69558;39.208;-77.226;2024-01-27T12:17:54;100710.38;;;15.93
80246;BMP280;69558;39.208;-77.226;2024-01-27T12:20:22;100715.41;;;15.94
80246;BMP280;69558;39.208;-77.226;2024-01-27T12:22:48;100720.84;;;15.93
80246;BMP280;69558;39.208;-77.226;2024-01-27T12:25:20;100727.84;;;15.92
80246;BMP280;69558;39.208;-77.226;2024-01-27T12:27:46;100725.22;;;15.92
80246;BMP280;69558;39.208;-77.226;2024-01-27T12:30:12;100722.75;;;15.90
80246;BMP280;69558;39.208;-77.226;2024-01-27T12:32:38;100736.53;;;15.93
80246;BMP280;69558;39.208;-77.226;2024-01-27T12:35:08;100731.44;;;15.91
80246;BMP280;69558;39.208;-77.226;2024-01-27T12:37:34;100720.13;;;15.90
80246;BMP280;69558;39.208;-77.226;2024-01-27T12:40:02;100732.25;;;15.92
80246;BMP280;69558;39.208;-77.226;2024-01-27T12:42:28;100720.97;;;15.91
80246;BMP280;69558;39.208;-77.226;2024-01-27T12:44:54;100720.97;;;15.91
80246;BMP280;69558;39.208;-77.226;2024-01-27T12:47:20;100720.31;;;15.89
80246;BMP280;69558;39.208;-77.226;2024-01-27T12:49:46;100727.13;;;15.82
80246;BMP280;69558;39.208;-77.226;2024-01-27T12:52:12;100736.16;;;15.87
80246;BMP280;69558;39.208;-77.226;2024-01-27T12:54:38;100741.38;;;15.87
80246;BMP280;69558;39.208;-77.226;2024-01-27T12:57:04;100744.00;;;15.87
80246;BMP280;69558;39.208;-77.226;2024-01-27T12:59:33;100744.00;;;15.87
80246;BMP280;69558;39.208;-77.226;2024-01-27T13:01:59;100748.25;;;15.88
80246;BMP280;69558;39.208;-77.226;2024-01-27T13:04:24;100750.06;;;15.88
80246;BMP280;69558;39.208;-77.226;2024-01-27T13:06:50;100745.78;;;15.87
80246;BMP280;69558;39.208;-77.226;2024-01-27T13:09:16;100745.94;;;15.85
80246;BMP280;69558;39.208;-77.226;2024-01-27T13:11:42;100746.63;;;15.87
80246;BMP280;69558;39.208;-77.226;2024-01-27T13:14:08;100745.94;;;15.85
80246;BMP280;69558;39.208;-77.226;2024-01-27T13:16:35;100744.16;;;15.86
80246;BMP280;69558;39.208;-77.226;2024-01-27T13:19:00;100759.53;;;15.89
80246;BMP280;69558;39.208;-77.226;2024-01-27T13:21:28;100768.22;;;15.89
80246;BMP280;69558;39.208;-77.226;2024-01-27T13:23:53;100771.13;;;15.86
80246;BMP280;69558;39.208;-77.226;2024-01-27T13:26:19;100757.03;;;15.79
80246;BMP280;69558;39.208;-77.226;2024-01-27T13:28:46;100770.16;;;15.87